createdAt,value
2018-02-07T00:02:08.680Z,38.13
2018-02-07T00:04:37.517Z,37.30
2018-02-07T00:07:05.567Z,32.20
2018-02-07T00:09:33.688Z,30.00
2018-02-07T00:12:01.975Z,31.73
2018-02-07T00:14:30.208Z,29.47
2018-02-07T00:16:58.254Z,25.57
2018-02-07T00:19:26.328Z,30.03
2018-02-07T00:21:54.426Z,30.23
2018-02-07T00:24:22.484Z,29.83
2018-02-07T00:26:50.534Z,31.00
2018-02-07T00:29:18.600Z,32.20
2018-02-07T00:31:46.659Z,29.80
2018-02-07T00:34:14.712Z,28.63
2018-02-07T00:36:42.754Z,28.67
2018-02-07T00:39:16.827Z,30.73
2018-02-07T00:41:44.893Z,28.37
2018-02-07T00:44:13.722Z,28.47
2018-02-07T00:46:42.045Z,26.33
2018-02-07T00:49:10.762Z,28.17
2018-02-07T00:52:00.856Z,27.93
2018-02-07T00:54:31.215Z,29.90
2018-02-07T00:57:04.111Z,29.17
2018-02-07T00:59:35.176Z,28.57
2018-02-07T01:02:05.548Z,29.60
2018-02-07T01:04:35.840Z,29.50
2018-02-07T01:07:29.614Z,29.70
2018-02-07T01:10:15.981Z,29.87
2018-02-07T01:12:44.102Z,28.80
2018-02-07T01:15:12.158Z,29.73
2018-02-07T01:17:40.231Z,29.87
2018-02-07T01:20:20.208Z,28.47
2018-02-07T01:23:01.298Z,30.10
2018-02-07T01:25:35.972Z,30.73
2018-02-07T01:28:33.051Z,30.33
2018-02-07T01:31:08.262Z,28.93
2018-02-07T01:33:41.691Z,29.07
2018-02-07T01:36:09.742Z,30.27
2018-02-07T01:38:37.795Z,29.23
2018-02-07T01:41:32.198Z,30.60
2018-02-07T01:44:04.853Z,32.17
2018-02-07T01:47:07.443Z,31.70
2018-02-07T01:49:39.405Z,32.07
2018-02-07T01:52:13.289Z,31.50
2018-02-07T01:54:41.363Z,31.43
2018-02-07T01:57:12.184Z,31.67
2018-02-07T01:59:42.894Z,31.37
2018-02-07T02:02:24.026Z,28.73
2018-02-07T02:08:30.880Z,32.30
2018-02-07T02:11:13.373Z,30.40
2018-02-07T02:13:42.090Z,31.30
2018-02-07T02:16:10.138Z,29.43
2018-02-07T02:18:40.143Z,30.03
2018-02-07T02:21:08.978Z,31.53
2018-02-07T02:26:46.761Z,30.17
2018-02-07T02:38:35.237Z,30.43
2018-02-07T02:41:07.582Z,27.97
2018-02-07T02:43:43.588Z,26.73
2018-02-07T02:46:12.422Z,29.40
2018-02-07T02:48:41.242Z,30.43
2018-02-07T02:51:11.641Z,30.53
2018-02-07T02:56:44.783Z,29.87
2018-02-07T02:59:13.625Z,31.30
2018-02-07T03:01:43.297Z,31.97
2018-02-07T03:04:11.350Z,30.70
2018-02-07T03:06:42.680Z,31.20
2018-02-07T03:09:11.508Z,30.73
2018-02-07T03:11:43.298Z,30.83
2018-02-07T03:14:11.374Z,30.43
2018-02-07T03:16:43.367Z,31.60
2018-02-07T03:19:12.628Z,29.77
2018-02-07T03:25:06.036Z,29.13
2018-02-07T03:27:36.131Z,28.53
2018-02-07T03:30:07.069Z,31.23
2018-02-07T03:32:39.995Z,32.83
2018-02-07T03:35:09.427Z,33.63
2018-02-07T03:37:40.224Z,33.03
2018-02-07T03:40:08.452Z,30.53
2018-02-07T03:42:36.700Z,30.23
2018-02-07T03:45:07.080Z,32.30
2018-02-07T03:47:41.605Z,31.57
2018-02-07T03:50:15.485Z,33.90
2018-02-07T03:53:01.725Z,31.40
2018-02-07T03:56:07.742Z,30.73
2018-02-07T03:58:47.624Z,31.63
2018-02-07T04:01:17.291Z,33.67
2018-02-07T04:03:45.365Z,31.97
2018-02-07T04:06:13.741Z,35.00
2018-02-07T04:08:47.629Z,32.27
2018-02-07T04:11:15.685Z,33.03
2018-02-07T04:13:43.899Z,32.87
2018-02-07T04:16:12.734Z,33.33
2018-02-07T04:18:44.060Z,34.07
2018-02-07T04:21:12.113Z,30.10
2018-02-07T04:23:40.212Z,34.10
2018-02-07T04:26:30.812Z,33.33
2018-02-07T04:32:34.619Z,32.80
2018-02-07T04:35:33.030Z,33.83
2018-02-07T04:38:10.959Z,34.40
2018-02-07T04:40:59.812Z,33.87
2018-02-07T04:43:39.199Z,33.63
2018-02-07T04:46:30.235Z,40.33
2018-02-07T04:49:08.121Z,46.83
2018-02-07T04:51:43.216Z,45.13
2018-02-07T04:54:14.326Z,41.50
2018-02-07T04:56:56.771Z,42.30
2018-02-07T05:00:02.025Z,36.17
2018-02-07T05:02:37.355Z,37.07
2018-02-07T05:05:12.406Z,35.00
2018-02-07T05:07:44.850Z,35.90
2018-02-07T05:10:14.878Z,37.67
2018-02-07T05:12:42.939Z,37.73
2018-02-07T05:15:31.307Z,35.20
2018-02-07T05:18:30.385Z,35.27
2018-02-07T05:21:20.853Z,34.57
2018-02-07T05:23:52.751Z,33.07
2018-02-07T05:26:48.579Z,33.77
2018-02-07T05:29:33.428Z,35.73
2018-02-07T05:32:27.830Z,33.00
2018-02-07T05:35:04.708Z,33.50
2018-02-07T05:37:39.436Z,35.27
2018-02-07T05:40:08.207Z,31.73
2018-02-07T05:43:00.273Z,32.87
2018-02-07T05:45:45.368Z,36.30
2018-02-07T05:48:13.415Z,39.20
2018-02-07T05:50:43.573Z,42.47
2018-02-07T05:53:13.300Z,44.90
2018-02-07T05:55:42.113Z,48.10
2018-02-07T05:58:15.457Z,47.77
2018-02-07T06:00:44.907Z,45.57
2018-02-07T06:03:12.956Z,43.67
2018-02-07T06:05:41.868Z,42.43
2018-02-07T06:08:31.467Z,43.80
2018-02-07T06:11:03.134Z,40.57
2018-02-07T06:13:33.548Z,41.27
2018-02-07T06:16:02.537Z,41.63
2018-02-07T06:18:32.089Z,39.93
2018-02-07T06:21:02.334Z,36.03
2018-02-07T06:23:32.015Z,35.33
2018-02-07T06:26:01.115Z,37.33
2018-02-07T06:28:30.955Z,36.97
2018-02-07T06:31:00.906Z,38.07
2018-02-07T06:33:31.173Z,36.33
2018-02-07T06:36:00.330Z,38.97
2018-02-07T06:38:30.950Z,42.77
2018-02-07T06:41:02.165Z,38.70
2018-02-07T06:43:44.315Z,37.43
2018-02-07T06:46:12.321Z,36.37
2018-02-07T06:48:40.693Z,36.20
2018-02-07T06:51:09.497Z,34.90
2018-02-07T06:53:37.933Z,35.13
2018-02-07T06:56:06.112Z,37.63
2018-02-07T06:58:42.889Z,35.93
2018-02-07T07:01:10.961Z,35.33
2018-02-07T07:03:39.305Z,37.23
2018-02-07T07:06:07.911Z,37.30
2018-02-07T07:08:36.123Z,36.40
2018-02-07T07:11:13.732Z,39.03
2018-02-07T07:13:41.793Z,40.17
2018-02-07T07:16:10.069Z,40.90
2018-02-07T07:18:41.668Z,42.87
2018-02-07T07:21:10.230Z,47.97
2018-02-07T07:23:38.480Z,50.43
2018-02-07T07:26:06.718Z,51.77
2018-02-07T07:28:35.030Z,61.93
2018-02-07T07:31:03.279Z,54.70
2018-02-07T07:33:32.328Z,45.50
2018-02-07T07:36:01.465Z,38.93
2018-02-07T07:38:30.245Z,36.77
2018-02-07T07:40:59.425Z,36.73
2018-02-07T07:43:29.181Z,37.27
2018-02-07T07:45:58.616Z,35.33
2018-02-07T07:48:28.844Z,39.33
2018-02-07T07:51:01.515Z,38.70
2018-02-07T07:53:37.848Z,39.23
2018-02-07T07:56:12.666Z,37.67
2018-02-07T07:58:41.161Z,34.80
2018-02-07T08:01:10.404Z,38.60
2018-02-07T08:03:40.733Z,38.43
2018-02-07T08:06:34.383Z,40.07
2018-02-07T08:09:33.784Z,37.20
2018-02-07T08:12:07.853Z,37.63
2018-02-07T08:14:36.677Z,39.23
2018-02-07T08:17:08.374Z,39.47
2018-02-07T08:19:39.156Z,38.87
2018-02-07T08:22:10.151Z,39.67
2018-02-07T08:24:42.222Z,39.80
2018-02-07T08:30:22.205Z,42.23
2018-02-07T08:33:02.366Z,39.33
2018-02-07T08:35:33.729Z,40.23
2018-02-07T08:38:03.376Z,40.33
2018-02-07T08:40:32.530Z,40.03
2018-02-07T08:43:02.035Z,38.97
2018-02-07T08:45:42.981Z,38.80
2018-02-07T08:48:11.047Z,41.43
2018-02-07T08:50:40.543Z,41.93
2018-02-07T08:53:09.076Z,42.27
2018-02-07T08:55:44.186Z,41.17
2018-02-07T08:58:34.593Z,41.83
2018-02-07T09:01:18.914Z,42.40
2018-02-07T09:03:47.445Z,41.80
2018-02-07T09:06:15.498Z,41.40
2018-02-07T09:08:43.551Z,40.30
2018-02-07T09:11:11.777Z,39.67
2018-02-07T09:13:40.679Z,39.27
2018-02-07T09:16:09.814Z,39.53
2018-02-07T09:18:39.725Z,37.73
2018-02-07T09:21:09.898Z,43.47
2018-02-07T09:23:39.420Z,41.37
2018-02-07T09:26:09.654Z,38.80
2018-02-07T09:28:59.724Z,37.80
2018-02-07T09:31:45.044Z,39.83
2018-02-07T09:34:13.183Z,39.23
2018-02-07T09:36:41.697Z,40.60
2018-02-07T09:39:10.753Z,44.70
2018-02-07T09:41:41.051Z,40.53
2018-02-07T09:44:10.928Z,38.90
2018-02-07T09:46:39.557Z,45.73
2018-02-07T09:49:09.938Z,38.70
2018-02-07T09:51:38.002Z,38.37
2018-02-07T09:54:07.757Z,37.73
2018-02-07T09:56:41.016Z,38.97
2018-02-07T09:59:31.706Z,39.93
2018-02-07T10:02:08.261Z,38.87
2018-02-07T10:04:37.473Z,35.97
2018-02-07T10:07:08.295Z,38.50
2018-02-07T10:09:36.768Z,37.70
2018-02-07T10:12:07.100Z,37.13
2018-02-07T10:15:00.937Z,38.67
2018-02-07T10:17:43.094Z,35.00
2018-02-07T10:20:12.261Z,39.70
2018-02-07T10:22:40.330Z,40.47
2018-02-07T10:25:08.364Z,39.23
2018-02-07T10:27:41.377Z,39.37
2018-02-07T10:30:12.498Z,41.20
2018-02-07T10:32:44.155Z,37.90
2018-02-07T10:35:13.148Z,38.70
2018-02-07T10:37:42.445Z,44.73
2018-02-07T10:40:10.559Z,42.70
2018-02-07T10:42:41.853Z,41.43
2018-02-07T10:45:26.001Z,44.33
2018-02-07T10:48:18.100Z,42.00
2018-02-07T10:50:46.182Z,41.03
2018-02-07T10:53:14.868Z,39.53
2018-02-07T10:55:43.056Z,44.17
2018-02-07T10:58:15.175Z,37.00
2018-02-07T11:01:01.814Z,40.60
2018-02-07T11:03:34.263Z,41.07
2018-02-07T11:06:04.727Z,43.03
2018-02-07T11:08:34.557Z,42.90
2018-02-07T11:11:05.222Z,44.00
2018-02-07T11:13:37.070Z,46.23
2018-02-07T11:16:10.481Z,45.00
2018-02-07T11:21:39.683Z,46.67
2018-02-07T11:24:08.527Z,45.53
2018-02-07T11:26:37.579Z,48.00
2018-02-07T11:29:07.112Z,49.00
2018-02-07T11:31:41.550Z,47.63
2018-02-07T11:34:30.390Z,49.27
2018-02-07T11:37:14.564Z,48.00
2018-02-07T11:40:29.183Z,48.90
2018-02-07T11:43:11.678Z,48.23
2018-02-07T11:45:40.939Z,48.90
2018-02-07T11:48:08.979Z,49.93
2018-02-07T11:50:41.816Z,52.20
2018-02-07T11:53:10.636Z,50.80
2018-02-07T11:55:44.641Z,58.63
2018-02-07T11:58:32.451Z,49.53
2018-02-07T12:01:34.182Z,57.97
2018-02-07T12:04:38.477Z,55.30
2018-02-07T12:10:12.831Z,49.37
2018-02-07T12:12:44.063Z,46.03
2018-02-07T12:15:12.372Z,43.60
2018-02-07T12:17:43.063Z,45.43
2018-02-07T12:20:29.115Z,48.43
2018-02-07T12:23:03.557Z,50.30
2018-02-07T12:25:41.030Z,50.47
2018-02-07T12:28:15.545Z,47.10
2018-02-07T12:30:44.430Z,47.97
2018-02-07T12:33:12.499Z,52.53
2018-02-07T12:35:40.551Z,48.83
2018-02-07T12:38:30.263Z,47.37
2018-02-07T12:41:06.605Z,63.00
2018-02-07T12:43:35.338Z,50.97
2018-02-07T12:46:09.513Z,50.60
2018-02-07T12:48:42.431Z,66.67
2018-02-07T12:51:13.391Z,49.03
2018-02-07T13:00:37.613Z,46.57
2018-02-07T13:03:08.174Z,51.10
2018-02-07T13:09:06.490Z,48.73
2018-02-07T13:11:37.336Z,51.03
2018-02-07T13:14:08.394Z,48.43
2018-02-07T13:16:37.022Z,52.40
2018-02-07T13:19:05.918Z,48.50
2018-02-07T13:21:34.136Z,55.33
2018-02-07T13:24:02.531Z,53.13
2018-02-07T13:26:31.284Z,53.27
2018-02-07T13:28:59.567Z,61.83
2018-02-07T13:31:29.457Z,45.97
2018-02-07T13:34:00.778Z,54.83
2018-02-07T13:36:35.616Z,52.37
2018-02-07T13:39:10.186Z,48.43
2018-02-07T13:41:39.480Z,47.50
2018-02-07T13:44:08.294Z,45.67
2018-02-07T13:46:37.544Z,47.33
2018-02-07T13:49:06.890Z,47.03
2018-02-07T13:51:58.584Z,47.00
2018-02-07T13:54:58.797Z,52.80
2018-02-07T14:03:45.266Z,48.13
2018-02-07T14:06:14.176Z,46.90
2018-02-07T14:08:43.004Z,46.60
2018-02-07T14:11:13.882Z,48.77
2018-02-07T14:13:43.793Z,46.77
2018-02-07T14:16:20.952Z,46.60
2018-02-07T14:18:48.981Z,48.07
2018-02-07T14:21:17.066Z,47.80
2018-02-07T14:23:45.129Z,49.17
2018-02-07T14:26:13.391Z,48.53
2018-02-07T14:28:42.424Z,48.37
2018-02-07T14:31:35.704Z,49.00
2018-02-07T14:40:45.150Z,50.70
2018-02-07T14:47:01.815Z,46.97
2018-02-07T14:49:33.372Z,48.23
2018-02-07T14:52:03.338Z,47.87
2018-02-07T14:54:33.741Z,48.53
2018-02-07T14:57:07.294Z,45.57
2018-02-07T14:59:37.059Z,45.00
2018-02-07T15:02:33.736Z,44.57
2018-02-07T15:05:21.212Z,46.33
2018-02-07T15:11:07.583Z,45.33
2018-02-07T15:13:41.353Z,44.27
2018-02-07T15:16:12.424Z,49.03
2018-02-07T15:18:41.208Z,53.97
2018-02-07T15:21:09.265Z,52.47
2018-02-07T15:24:16.446Z,49.57
2018-02-07T15:27:01.568Z,51.53
2018-02-07T15:29:58.999Z,44.90
2018-02-07T15:38:48.835Z,46.73
2018-02-07T15:41:17.669Z,48.47
2018-02-07T15:43:45.736Z,48.43
2018-02-07T15:46:14.265Z,50.57
2018-02-07T15:48:42.947Z,47.73
2018-02-07T15:57:42.644Z,53.73
2018-02-07T16:00:21.987Z,73.53
2018-02-07T16:02:50.648Z,63.73
2018-02-07T16:05:19.256Z,63.57
2018-02-07T16:07:47.435Z,97.33
2018-02-07T16:10:15.501Z,57.03
2018-02-07T16:13:02.636Z,65.23
2018-02-07T16:15:44.377Z,59.07
2018-02-07T16:18:14.336Z,49.40
2018-02-07T16:20:42.819Z,51.17
2018-02-07T16:23:11.646Z,54.90
2018-02-07T16:25:41.928Z,46.77
2018-02-07T16:28:30.905Z,47.93
2018-02-07T16:31:02.265Z,45.93
2018-02-07T16:33:35.545Z,51.80
2018-02-07T16:36:06.344Z,49.27
2018-02-07T16:38:36.008Z,47.27
2018-02-07T16:41:07.201Z,47.80
2018-02-07T16:43:35.473Z,48.87
2018-02-07T16:46:13.591Z,51.33
2018-02-07T16:48:42.293Z,48.87
2018-02-07T16:51:10.606Z,51.87
2018-02-07T16:53:39.007Z,49.03
2018-02-07T16:56:07.850Z,47.30
2018-02-07T16:58:36.919Z,49.47
2018-02-07T17:01:05.506Z,57.47
2018-02-07T17:03:34.768Z,54.90
2018-02-07T17:06:03.306Z,57.97
2018-02-07T17:08:32.256Z,54.00
2018-02-07T17:11:00.516Z,50.57
2018-02-07T17:13:41.397Z,53.47
2018-02-07T17:16:09.954Z,55.33
2018-02-07T17:18:38.414Z,48.57
2018-02-07T17:21:06.777Z,45.53
2018-02-07T17:23:35.799Z,46.63
2018-02-07T17:26:04.558Z,48.27
2018-02-07T17:28:38.422Z,45.67
2018-02-07T17:31:07.018Z,45.03
2018-02-07T17:33:36.161Z,44.77
2018-02-07T17:36:05.250Z,45.17
2018-02-07T17:38:34.263Z,40.17
2018-02-07T17:41:09.888Z,38.27
2018-02-07T17:43:37.976Z,37.40
2018-02-07T17:46:06.437Z,38.73
2018-02-07T17:48:34.619Z,36.57
2018-02-07T17:51:02.885Z,40.97
2018-02-07T17:53:31.839Z,37.60
2018-02-07T17:55:59.988Z,38.63
2018-02-07T17:58:28.457Z,36.13
2018-02-07T18:00:56.690Z,37.87
2018-02-07T18:03:25.592Z,37.03
2018-02-07T18:05:55.536Z,36.70
2018-02-07T18:08:24.552Z,37.60
2018-02-07T18:10:52.803Z,40.03
2018-02-07T18:13:21.363Z,38.27
2018-02-07T18:15:49.557Z,37.53
2018-02-07T18:18:18.401Z,39.17
2018-02-07T18:20:46.504Z,35.50
2018-02-07T18:23:19.849Z,36.40
2018-02-07T18:25:47.923Z,39.97
2018-02-07T18:28:16.751Z,37.13
2018-02-07T18:30:44.786Z,36.53
2018-02-07T18:33:12.856Z,35.53
2018-02-07T18:35:41.763Z,35.03
2018-02-07T18:38:09.845Z,39.97
2018-02-07T18:40:37.901Z,40.67
2018-02-07T18:43:06.055Z,37.73
2018-02-07T18:45:41.144Z,38.83
2018-02-07T18:48:09.230Z,38.17
2018-02-07T18:50:38.125Z,39.90
2018-02-07T18:53:06.226Z,41.17
2018-02-07T18:55:34.386Z,38.63
2018-02-07T18:58:03.191Z,39.03
2018-02-07T19:00:31.448Z,41.00
2018-02-07T19:02:59.524Z,41.33
2018-02-07T19:05:27.740Z,40.93
2018-02-07T19:07:56.932Z,44.33
2018-02-07T19:10:26.090Z,39.07
2018-02-07T19:12:55.325Z,40.47
2018-02-07T19:15:30.706Z,38.40
2018-02-07T19:18:00.392Z,39.73
2018-02-07T19:20:29.359Z,36.97
2018-02-07T19:22:57.697Z,44.27
2018-02-07T19:25:26.043Z,41.40
2018-02-07T19:28:04.566Z,40.03
2018-02-07T19:30:33.809Z,42.57
2018-02-07T19:33:01.944Z,40.37
2018-02-07T19:35:30.311Z,41.80
2018-02-07T19:37:58.756Z,42.63
2018-02-07T19:40:27.012Z,42.83
2018-02-07T19:42:56.446Z,38.80
2018-02-07T19:45:25.716Z,43.50
2018-02-07T19:47:54.245Z,45.67
2018-02-07T19:50:23.092Z,41.90
2018-02-07T19:52:51.231Z,41.43
2018-02-07T19:55:19.387Z,46.10
2018-02-07T19:57:47.546Z,42.60
2018-02-07T20:00:15.578Z,43.20
2018-02-07T20:02:44.564Z,43.83
2018-02-07T20:05:12.674Z,42.07
2018-02-07T20:07:40.731Z,41.27
2018-02-07T20:10:09.549Z,42.50
2018-02-07T20:12:37.604Z,43.70
2018-02-07T20:15:05.924Z,42.47
2018-02-07T20:17:35.016Z,42.83
2018-02-07T20:20:07.462Z,41.70
2018-02-07T20:22:38.229Z,39.60
2018-02-07T20:25:06.300Z,43.97
2018-02-07T20:27:34.380Z,44.40
2018-02-07T20:30:02.536Z,44.10
2018-02-07T20:32:30.630Z,42.70
2018-02-07T20:34:58.748Z,45.83
2018-02-07T20:37:27.688Z,43.80
2018-02-07T20:39:56.688Z,45.93
2018-02-07T20:42:25.333Z,46.47
2018-02-07T20:44:54.457Z,45.30
2018-02-07T20:47:22.862Z,44.30
2018-02-07T20:49:51.727Z,45.93
2018-02-07T20:52:19.819Z,49.53
2018-02-07T20:54:47.931Z,61.23
2018-02-07T20:57:15.955Z,50.63
2018-02-07T20:59:43.996Z,47.10
2018-02-07T21:02:12.209Z,44.50
2018-02-07T21:04:41.268Z,43.57
2018-02-07T21:07:09.560Z,50.10
2018-02-07T21:09:37.605Z,45.73
2018-02-07T21:12:05.785Z,56.43
2018-02-07T21:14:37.630Z,53.13
2018-02-07T21:17:06.429Z,46.27
2018-02-07T21:19:35.402Z,43.80
2018-02-07T21:22:03.531Z,41.50
2018-02-07T21:24:32.413Z,46.10
2018-02-07T21:27:00.513Z,47.07
2018-02-07T21:29:29.387Z,44.50
2018-02-07T21:31:57.655Z,62.53
2018-02-07T21:34:26.294Z,51.07
2018-02-07T21:36:55.089Z,76.00
2018-02-07T21:39:23.670Z,101.73
2018-02-07T21:41:54.433Z,53.90
2018-02-07T21:44:25.782Z,40.13
2018-02-07T21:46:54.424Z,43.67
2018-02-07T21:49:23.052Z,44.07
2018-02-07T21:51:51.272Z,42.87
2018-02-07T21:54:20.381Z,44.13
2018-02-07T21:56:48.696Z,62.33
2018-02-07T21:59:16.743Z,44.30
2018-02-07T22:01:44.816Z,47.20
2018-02-07T22:04:12.879Z,47.60
2018-02-07T22:06:41.695Z,43.87
2018-02-07T22:09:09.738Z,46.93
2018-02-07T22:11:37.809Z,48.40
2018-02-07T22:14:06.020Z,46.80
2018-02-07T22:16:34.523Z,58.50
2018-02-07T22:19:03.619Z,52.27
2018-02-07T22:21:32.032Z,52.83
2018-02-07T22:24:01.092Z,49.87
2018-02-07T22:26:29.624Z,49.60
2018-02-07T22:28:58.443Z,44.33
2018-02-07T22:31:28.695Z,49.07
2018-02-07T22:33:57.281Z,49.50
2018-02-07T22:36:39.566Z,54.00
2018-02-07T22:39:07.773Z,49.60
2018-02-07T22:41:36.391Z,53.13
2018-02-07T22:44:05.731Z,47.87
2018-02-07T22:46:34.651Z,51.60
2018-02-07T22:49:03.084Z,48.70
2018-02-07T22:51:31.543Z,56.50
2018-02-07T22:54:02.581Z,50.40
2018-02-07T22:56:31.532Z,48.23
2018-02-07T22:59:00.811Z,45.00
2018-02-07T23:01:46.450Z,54.47
2018-02-07T23:04:14.500Z,49.07
2018-02-07T23:06:42.593Z,49.07
2018-02-07T23:09:10.805Z,53.20
2018-02-07T23:11:38.880Z,79.73
2018-02-07T23:14:07.710Z,54.67
2018-02-07T23:16:43.206Z,48.50
2018-02-07T23:19:12.147Z,48.20
2018-02-07T23:21:40.654Z,48.73
2018-02-07T23:24:09.304Z,47.97
2018-02-07T23:26:39.115Z,52.20
2018-02-07T23:29:09.388Z,46.70
2018-02-07T23:31:38.536Z,46.37
2018-02-07T23:34:07.470Z,44.77
2018-02-07T23:36:37.214Z,42.27
2018-02-07T23:39:06.928Z,42.00
2018-02-07T23:41:39.226Z,44.53
2018-02-07T23:44:12.528Z,42.73
2018-02-07T23:47:06.660Z,42.33
2018-02-07T23:49:35.152Z,39.50
2018-02-07T23:52:09.884Z,42.97
2018-02-07T23:54:39.848Z,47.37
2018-02-07T23:57:08.104Z,45.23
2018-02-07T23:59:37.711Z,48.13
